Time;durP1;ratioP1;P1;durP2;ratioP2;P2;SDS_P1;SDS_P2;PMS_P1;PMS_P2;Temp;Humidity;BMP_temperature;BMP_pressure;BME280_temperature;BME280_humidity;BME280_pressure;Samples;Min_cycle;Max_cycle;Signal;HPM_P1;HPM_P2
2023/08/25 00:00:50;;;;;;;55.15;48.58;;;19.40;99.90;;;;;;5101132;28;20100;-61
2023/08/25 00:03:16;;;;;;;51.55;46.03;;;19.30;99.90;;;;;;5100843;28;20067;-61
2023/08/25 00:05:41;;;;;;;53.85;48.05;;;19.40;99.90;;;;;;5100389;28;20051;-61
2023/08/25 00:08:07;;;;;;;53.13;47.45;;;19.40;99.90;;;;;;5099298;28;20056;-61
2023/08/25 00:10:34;;;;;;;54.58;48.47;;;19.40;99.90;;;;;;5098131;28;20040;-61
2023/08/25 00:13:00;;;;;;;53.20;47.50;;;19.10;99.90;;;;;;5099574;28;20539;-60
2023/08/25 00:15:25;;;;;;;52.78;47.15;;;19.30;99.90;;;;;;5099737;28;20044;-61
2023/08/25 00:17:53;;;;;;;53.80;47.90;;;19.30;99.90;;;;;;5100625;28;20040;-61
2023/08/25 00:20:19;;;;;;;54.83;49.05;;;19.10;99.90;;;;;;5100186;28;20176;-61
2023/08/25 00:22:45;;;;;;;54.65;48.65;;;19.10;99.90;;;;;;5099787;28;20062;-61
2023/08/25 00:25:11;;;;;;;54.30;48.45;;;19.00;99.90;;;;;;5100438;28;20036;-61
2023/08/25 00:27:37;;;;;;;55.67;47.80;;;19.20;99.90;;;;;;5099139;28;20036;-61
2023/08/25 00:30:03;;;;;;;56.78;48.45;;;19.00;99.90;;;;;;5100306;28;20040;-61
2023/08/25 00:32:29;;;;;;;55.05;48.42;;;19.10;99.90;;;;;;5099794;28;20074;-61
2023/08/25 00:34:55;;;;;;;56.47;48.22;;;18.90;99.90;;;;;;5100502;28;20055;-61
2023/08/25 00:37:20;;;;;;;53.80;47.95;;;19.00;99.90;;;;;;5099826;28;20044;-61
2023/08/25 00:39:46;;;;;;;55.83;48.67;;;18.90;99.90;;;;;;5099793;28;20044;-61
2023/08/25 00:42:12;;;;;;;55.35;46.35;;;19.10;99.90;;;;;;5098796;28;20131;-61
2023/08/25 00:44:37;;;;;;;57.10;50.63;;;19.10;99.90;;;;;;5099070;28;20071;-61
2023/08/25 00:47:04;;;;;;;57.75;49.03;;;18.80;99.90;;;;;;5100165;28;20036;-62
2023/08/25 00:49:30;;;;;;;58.42;48.65;;;19.10;99.90;;;;;;5097031;28;20040;-61
2023/08/25 00:51:57;;;;;;;58.65;47.90;;;18.80;99.90;;;;;;5100288;28;20063;-61
2023/08/25 00:54:27;;;;;;;58.10;49.03;;;19.10;99.90;;;;;;5099461;28;20044;-60
2023/08/25 00:56:53;;;;;;;61.42;49.25;;;18.90;99.90;;;;;;5099179;28;20040;-61
2023/08/25 00:59:18;;;;;;;57.58;48.25;;;18.90;99.90;;;;;;5098822;28;20047;-61
2023/08/25 01:01:47;;;;;;;59.70;48.38;;;19.10;99.90;;;;;;5098740;28;20055;-61
2023/08/25 01:04:13;;;;;;;59.63;49.30;;;18.90;99.90;;;;;;5100055;28;20048;-61
2023/08/25 01:06:39;;;;;;;58.92;48.97;;;18.80;99.90;;;;;;5098127;28;20059;-61
2023/08/25 01:09:10;;;;;;;62.95;47.60;;;19.10;99.90;;;;;;5100261;28;20381;-61
2023/08/25 01:11:47;;;;;;;57.38;46.40;;;18.90;99.90;;;;;;5099516;28;20387;-61
2023/08/25 01:14:22;;;;;;;57.13;45.88;;;19.00;99.90;;;;;;5098718;28;20507;-61
2023/08/25 01:16:57;;;;;;;58.90;45.90;;;18.90;99.90;;;;;;5099767;28;20035;-61
2023/08/25 01:19:37;;;;;;;56.00;42.80;;;19.00;99.90;;;;;;5098227;28;20091;-61
2023/08/25 01:22:08;;;;;;;51.55;41.30;;;18.80;99.90;;;;;;5098279;28;20415;-61
2023/08/25 01:24:38;;;;;;;52.80;40.70;;;19.00;99.90;;;;;;5099189;28;20588;-61
2023/08/25 01:27:04;;;;;;;51.60;40.17;;;19.20;99.90;;;;;;5098831;28;20043;-61
2023/08/25 01:29:29;;;;;;;54.30;40.38;;;18.90;99.90;;;;;;5098317;28;20060;-61
2023/08/25 01:31:56;;;;;;;50.95;39.00;;;19.20;99.90;;;;;;5098182;28;20043;-61
2023/08/25 01:34:24;;;;;;;52.63;40.42;;;19.20;99.90;;;;;;5099666;28;20552;-61
2023/08/25 01:36:59;;;;;;;50.55;39.92;;;19.00;99.90;;;;;;5098867;28;20173;-61
2023/08/25 01:39:27;;;;;;;54.83;43.35;;;19.00;99.90;;;;;;5099572;28;20055;-61
2023/08/25 01:41:58;;;;;;;50.63;40.85;;;19.00;99.90;;;;;;5099103;28;20083;-61
2023/08/25 01:44:27;;;;;;;52.28;42.03;;;19.10;99.90;;;;;;5098406;28;20051;-61
2023/08/25 01:46:58;;;;;;;51.63;41.58;;;19.10;99.90;;;;;;5099437;28;20065;-61
2023/08/25 01:49:24;;;;;;;54.47;42.78;;;19.10;99.90;;;;;;5098253;28;20043;-62
2023/08/25 01:51:51;;;;;;;51.15;40.78;;;19.10;99.90;;;;;;5099560;28;20044;-61
2023/08/25 01:54:16;;;;;;;54.38;42.40;;;19.00;99.90;;;;;;5098828;28;20099;-61
2023/08/25 01:56:42;;;;;;;58.15;43.03;;;18.80;99.90;;;;;;5115510;28;20050;-61
2023/08/25 01:59:08;;;;;;;53.70;40.70;;;18.90;99.90;;;;;;5117798;28;20067;-61
2023/08/25 02:01:33;;;;;;;57.00;43.53;;;19.10;99.90;;;;;;5118064;28;20151;-63
2023/08/25 02:03:59;;;;;;;53.55;41.92;;;18.90;99.90;;;;;;5119756;28;20047;-62
2023/08/25 02:06:25;;;;;;;56.50;44.58;;;18.80;99.90;;;;;;5118275;28;20526;-61
2023/08/25 02:08:50;;;;;;;55.63;40.97;;;18.80;99.90;;;;;;5119428;28;20104;-61
2023/08/25 02:11:17;;;;;;;55.03;42.05;;;18.90;99.90;;;;;;5117191;28;20078;-62
2023/08/25 02:13:42;;;;;;;53.70;41.13;;;18.80;99.90;;;;;;5119204;28;20043;-61
2023/08/25 02:16:08;;;;;;;52.58;41.67;;;18.90;99.90;;;;;;5119419;28;20384;-61
2023/08/25 02:18:34;;;;;;;53.65;41.10;;;18.60;99.90;;;;;;5119569;28;20047;-62
2023/08/25 02:20:59;;;;;;;54.50;43.05;;;18.60;99.90;;;;;;5121986;28;20067;-61
2023/08/25 02:23:25;;;;;;;56.85;42.03;;;18.80;99.90;;;;;;5122505;28;20044;-62
2023/08/25 02:25:53;;;;;;;53.90;42.42;;;18.80;99.90;;;;;;5123084;28;20079;-62
2023/08/25 02:28:19;;;;;;;56.67;42.67;;;18.70;99.90;;;;;;5120911;28;20078;-61
2023/08/25 02:30:45;;;;;;;58.08;44.13;;;18.80;99.90;;;;;;5123032;28;20031;-61
2023/08/25 02:33:11;;;;;;;55.50;43.22;;;19.00;99.90;;;;;;5121557;28;20036;-62
2023/08/25 02:35:37;;;;;;;57.45;41.50;;;18.90;99.90;;;;;;5122247;28;20040;-61
2023/08/25 02:38:08;;;;;;;60.90;43.40;;;19.10;99.90;;;;;;5123531;28;20093;-61
2023/08/25 02:40:34;;;;;;;58.13;41.92;;;19.00;99.90;;;;;;5122155;28;20048;-61
2023/08/25 02:43:02;;;;;;;59.00;42.90;;;18.70;99.90;;;;;;5123018;28;20040;-61
2023/08/25 02:45:28;;;;;;;57.67;41.95;;;18.80;99.90;;;;;;5122096;28;20167;-62
2023/08/25 02:47:54;;;;;;;63.92;43.63;;;19.00;99.90;;;;;;5122580;28;20179;-62
2023/08/25 02:50:20;;;;;;;66.80;45.58;;;19.00;99.90;;;;;;5122576;28;20065;-61
2023/08/25 02:52:47;;;;;;;68.93;45.38;;;18.70;99.90;;;;;;5121764;28;20051;-61
2023/08/25 02:55:16;;;;;;;60.80;42.08;;;19.10;99.90;;;;;;5118584;28;20486;-61
2023/08/25 02:57:45;;;;;;;60.13;42.40;;;18.90;99.90;;;;;;5100939;28;20071;-62
2023/08/25 03:00:13;;;;;;;61.20;42.72;;;19.00;99.90;;;;;;5102627;28;20028;-61
2023/08/25 03:02:39;;;;;;;61.42;41.22;;;19.00;99.90;;;;;;5101466;28;20040;-61
2023/08/25 03:05:05;;;;;;;59.72;41.58;;;18.80;99.90;;;;;;5102218;28;20051;-61
2023/08/25 03:07:32;;;;;;;64.60;44.17;;;18.70;99.90;;;;;;5101830;28;20048;-61
2023/08/25 03:09:58;;;;;;;64.32;44.38;;;19.10;99.90;;;;;;5099993;28;20295;-62
2023/08/25 03:12:26;;;;;;;61.78;43.67;;;18.90;99.90;;;;;;5102262;28;20051;-62
2023/08/25 03:14:53;;;;;;;60.75;41.58;;;18.90;99.90;;;;;;5100957;28;20075;-60
2023/08/25 03:17:18;;;;;;;59.95;42.22;;;18.90;99.90;;;;;;5102064;28;20036;-61
2023/08/25 03:19:44;;;;;;;56.65;41.38;;;19.00;99.90;;;;;;5101186;28;20040;-61
2023/08/25 03:22:09;;;;;;;58.05;41.75;;;19.00;99.90;;;;;;5100136;28;20071;-61
2023/08/25 03:24:35;;;;;;;59.20;41.53;;;19.00;99.90;;;;;;5101727;28;20126;-61
2023/08/25 03:27:01;;;;;;;56.75;41.08;;;18.90;99.90;;;;;;5100886;28;20044;-61
2023/08/25 03:29:26;;;;;;;56.92;40.78;;;18.70;99.90;;;;;;5101674;28;20502;-63
2023/08/25 03:31:52;;;;;;;57.63;41.35;;;18.70;99.90;;;;;;5100305;28;20051;-61
2023/08/25 03:34:18;;;;;;;53.58;39.30;;;19.00;99.90;;;;;;5101648;28;20062;-61
2023/08/25 03:36:45;;;;;;;54.45;39.55;;;18.70;99.90;;;;;;5100589;28;20040;-61
2023/08/25 03:39:12;;;;;;;55.20;39.63;;;19.00;99.90;;;;;;5101835;28;20048;-59
2023/08/25 03:41:37;;;;;;;59.70;40.95;;;18.80;99.90;;;;;;5101082;28;20043;-59
2023/08/25 03:44:03;;;;;;;55.92;40.53;;;18.80;99.90;;;;;;5099425;28;20386;-59
2023/08/25 03:46:29;;;;;;;57.47;40.28;;;18.80;99.90;;;;;;5101327;28;20051;-59
2023/08/25 03:48:56;;;;;;;59.60;42.47;;;19.00;99.90;;;;;;5098441;28;20040;-59
2023/08/25 03:51:22;;;;;;;57.10;41.17;;;19.00;99.90;;;;;;5101341;28;20048;-58
2023/08/25 03:53:48;;;;;;;61.50;41.33;;;18.60;99.90;;;;;;5100294;28;20048;-59
2023/08/25 03:56:13;;;;;;;56.92;41.10;;;18.70;99.90;;;;;;5113942;28;20067;-58
2023/08/25 03:58:39;;;;;;;62.17;42.72;;;18.90;99.90;;;;;;5120914;28;20040;-58
2023/08/25 04:01:05;;;;;;;60.35;42.38;;;18.70;99.90;;;;;;5120806;28;20073;-58
2023/08/25 04:03:30;;;;;;;61.40;41.72;;;18.70;99.90;;;;;;5121273;28;20039;-58
2023/08/25 04:05:56;;;;;;;58.08;42.78;;;18.70;99.90;;;;;;5119746;28;20044;-59
2023/08/25 04:08:22;;;;;;;61.30;42.63;;;18.70;99.90;;;;;;5121414;27;20052;-58
2023/08/25 04:10:48;;;;;;;61.80;43.55;;;18.90;99.90;;;;;;5120413;28;20050;-65
2023/08/25 04:13:14;;;;;;;60.00;42.35;;;18.70;99.90;;;;;;5121199;28;20043;-59
2023/08/25 04:15:39;;;;;;;64.05;44.35;;;18.80;99.90;;;;;;5120629;28;20051;-59
2023/08/25 04:18:05;;;;;;;64.07;43.75;;;18.80;99.90;;;;;;5120376;28;20043;-59
2023/08/25 04:20:32;;;;;;;61.90;43.97;;;18.90;99.90;;;;;;5121239;28;20090;-60
2023/08/25 04:23:01;;;;;;;66.60;45.60;;;18.60;99.90;;;;;;5119709;28;20085;-59
2023/08/25 04:25:29;;;;;;;66.30;45.47;;;18.90;99.90;;;;;;5121056;28;20083;-59
2023/08/25 04:27:58;;;;;;;67.55;46.13;;;18.60;99.90;;;;;;5119854;28;20043;-58
2023/08/25 04:30:24;;;;;;;64.47;45.08;;;18.90;99.90;;;;;;5120055;28;20035;-59
2023/08/25 04:32:50;;;;;;;66.32;46.40;;;18.70;99.90;;;;;;5118853;28;20040;-59
2023/08/25 04:35:16;;;;;;;69.75;46.63;;;18.60;99.90;;;;;;5120272;28;20040;-58
2023/08/25 04:37:47;;;;;;;63.08;45.38;;;18.90;99.90;;;;;;5120878;28;20047;-59
2023/08/25 04:40:15;;;;;;;65.85;46.33;;;19.00;99.90;;;;;;5118442;28;20050;-58
2023/08/25 04:42:42;;;;;;;66.30;45.97;;;18.70;99.90;;;;;;5120134;28;20055;-59
2023/08/25 04:45:09;;;;;;;70.38;48.60;;;18.80;99.90;;;;;;5119694;28;20063;-59
2023/08/25 04:47:35;;;;;;;66.28;46.63;;;18.90;99.90;;;;;;5120835;28;20402;-59
2023/08/25 04:50:03;;;;;;;73.18;47.33;;;18.60;99.90;;;;;;5120008;27;20040;-58
2023/08/25 04:52:33;;;;;;;68.22;46.42;;;18.60;99.90;;;;;;5119757;28;20070;-59
2023/08/25 04:54:59;;;;;;;68.53;47.50;;;18.80;99.90;;;;;;5118251;28;20441;-58
2023/08/25 04:57:25;;;;;;;68.85;46.50;;;18.60;99.90;;;;;;5098994;28;20063;-59
2023/08/25 04:59:50;;;;;;;68.82;47.33;;;18.90;99.90;;;;;;5099520;28;20051;-59
2023/08/25 05:02:17;;;;;;;68.85;47.25;;;18.90;99.90;;;;;;5099016;28;20048;-58
2023/08/25 05:04:43;;;;;;;72.30;49.42;;;18.60;99.90;;;;;;5100132;28;20403;-59
2023/08/25 05:07:09;;;;;;;73.63;48.50;;;18.70;99.90;;;;;;5099387;28;20090;-58
2023/08/25 05:09:34;;;;;;;72.25;47.17;;;18.50;99.90;;;;;;5099270;28;20089;-59
2023/08/25 05:12:00;;;;;;;70.97;47.17;;;18.70;99.90;;;;;;5099827;28;20048;-58
2023/08/25 05:14:26;;;;;;;73.55;50.08;;;18.60;99.90;;;;;;5098686;28;20040;-58
2023/08/25 05:16:51;;;;;;;69.35;48.78;;;18.70;99.90;;;;;;5099445;28;20698;-58
2023/08/25 05:19:17;;;;;;;71.82;49.63;;;18.50;99.90;;;;;;5097213;28;20083;-58
2023/08/25 05:21:43;;;;;;;75.25;48.63;;;18.80;99.90;;;;;;5099665;28;20562;-58
2023/08/25 05:24:20;;;;;;;73.38;46.70;;;18.70;99.90;;;;;;5098901;28;20044;-58
2023/08/25 05:26:52;;;;;;;71.15;46.33;;;18.70;99.90;;;;;;5099015;28;20096;-59
2023/08/25 05:29:27;;;;;;;72.80;46.90;;;18.70;99.90;;;;;;5099172;28;20075;-59
2023/08/25 05:31:54;;;;;;;71.28;46.90;;;19.00;99.90;;;;;;5098533;28;20044;-58
2023/08/25 05:34:20;;;;;;;79.60;49.03;;;18.80;99.90;;;;;;5099739;28;20052;-58
2023/08/25 05:36:46;;;;;;;76.80;49.80;;;19.00;99.90;;;;;;5098741;28;20048;-59
2023/08/25 05:39:12;;;;;;;81.05;50.05;;;18.90;99.90;;;;;;5095452;28;20044;-58
2023/08/25 05:41:38;;;;;;;80.50;49.15;;;18.60;99.90;;;;;;5095206;28;20063;-59
2023/08/25 05:44:04;;;;;;;86.85;51.67;;;18.70;99.90;;;;;;5094692;28;20036;-58
2023/08/25 05:46:30;;;;;;;89.47;50.47;;;18.80;99.90;;;;;;5095343;28;20470;-59
2023/08/25 05:48:57;;;;;;;89.82;51.47;;;18.90;99.90;;;;;;5093969;28;20047;-59
2023/08/25 05:51:23;;;;;;;97.53;53.95;;;19.00;99.90;;;;;;5095451;28;20040;-59
2023/08/25 05:53:49;;;;;;;93.20;52.97;;;18.70;99.90;;;;;;5101780;28;20036;-59
2023/08/25 05:56:15;;;;;;;90.78;51.08;;;19.00;99.90;;;;;;5109807;28;20047;-58
2023/08/25 05:58:43;;;;;;;85.25;51.97;;;18.80;99.90;;;;;;5105304;28;20066;-58
2023/08/25 06:01:10;;;;;;;88.07;50.30;;;19.10;99.90;;;;;;5107435;28;20515;-58
2023/08/25 06:03:36;;;;;;;88.85;50.08;;;18.70;99.90;;;;;;5107795;28;20036;-58
2023/08/25 06:06:02;;;;;;;93.38;51.92;;;19.10;99.90;;;;;;5107160;28;20089;-58
2023/08/25 06:08:30;;;;;;;99.55;54.00;;;19.00;99.90;;;;;;5111943;28;20044;-59
2023/08/25 06:10:57;;;;;;;94.22;54.60;;;19.00;99.90;;;;;;5118605;28;20044;-58
2023/08/25 06:13:23;;;;;;;92.53;54.25;;;19.10;99.90;;;;;;5119718;28;20483;-58
2023/08/25 06:15:49;;;;;;;99.50;54.70;;;19.10;99.90;;;;;;5119167;28;20091;-58
2023/08/25 06:18:15;;;;;;;98.10;55.60;;;19.00;99.90;;;;;;5118676;28;20322;-59
2023/08/25 06:20:41;;;;;;;89.78;52.83;;;18.90;99.90;;;;;;5119725;28;20043;-58
2023/08/25 06:23:08;;;;;;;87.15;53.10;;;18.70;99.90;;;;;;5117825;28;20119;-58
2023/08/25 06:25:33;;;;;;;92.15;52.20;;;19.10;99.90;;;;;;5099437;28;20106;-58
2023/08/25 06:27:59;;;;;;;83.50;51.33;;;18.90;99.90;;;;;;5097835;28;20044;-58
2023/08/25 06:30:32;;;;;;;86.38;52.17;;;19.10;99.90;;;;;;5098945;28;20044;-58
2023/08/25 06:32:58;;;;;;;86.57;52.17;;;19.00;99.90;;;;;;5098917;28;20044;-58
2023/08/25 06:35:24;;;;;;;81.93;50.10;;;19.10;99.90;;;;;;5098250;28;20055;-58
2023/08/25 06:37:50;;;;;;;74.07;48.20;;;19.00;99.90;;;;;;5098473;28;20098;-58
2023/08/25 06:40:16;;;;;;;73.53;49.08;;;19.00;99.90;;;;;;5097398;28;20040;-58
2023/08/25 06:42:42;;;;;;;71.28;49.63;;;18.90;99.90;;;;;;5098885;28;20067;-58
2023/08/25 06:45:11;;;;;;;72.03;49.88;;;19.20;99.90;;;;;;5097836;28;20132;-58
2023/08/25 06:47:38;;;;;;;71.05;48.67;;;19.20;99.90;;;;;;5098719;28;20051;-59
2023/08/25 06:50:05;;;;;;;69.97;47.55;;;18.90;99.90;;;;;;5097673;28;20048;-58
2023/08/25 06:52:31;;;;;;;67.95;46.70;;;19.00;99.90;;;;;;5096733;28;20113;-58
2023/08/25 06:54:58;;;;;;;61.65;45.55;;;19.20;99.90;;;;;;5100444;28;20040;-58
2023/08/25 06:57:23;;;;;;;61.95;45.40;;;19.30;99.90;;;;;;5117797;28;20039;-58
2023/08/25 06:59:50;;;;;;;57.45;43.10;;;19.30;99.90;;;;;;5115626;28;20056;-59
2023/08/25 07:02:16;;;;;;;65.20;46.50;;;19.50;99.90;;;;;;5117467;28;20051;-58
2023/08/25 07:04:42;;;;;;;59.17;43.42;;;19.60;99.90;;;;;;5118368;28;20039;-59
2023/08/25 07:07:08;;;;;;;57.80;41.00;;;19.40;99.90;;;;;;5117982;28;20058;-58
2023/08/25 07:09:35;;;;;;;55.35;41.78;;;19.50;99.90;;;;;;5118162;28;20035;-58
2023/08/25 07:12:00;;;;;;;52.50;41.05;;;19.80;99.90;;;;;;5118845;28;20094;-58
2023/08/25 07:14:30;;;;;;;50.17;40.70;;;19.70;99.90;;;;;;5117034;28;20039;-58
2023/08/25 07:16:56;;;;;;;55.30;41.88;;;19.80;99.90;;;;;;5118354;28;20506;-58
2023/08/25 07:19:22;;;;;;;53.85;41.90;;;19.70;99.90;;;;;;5117266;28;20047;-58
2023/08/25 07:21:48;;;;;;;50.80;41.08;;;19.70;99.90;;;;;;5117101;28;20584;-58
2023/08/25 07:24:13;;;;;;;55.25;40.20;;;19.60;99.90;;;;;;5116415;28;20039;-58
2023/08/25 07:26:39;;;;;;;47.83;38.50;;;19.60;99.90;;;;;;5097081;28;20051;-58
2023/08/25 07:29:04;;;;;;;48.05;37.33;;;19.60;99.90;;;;;;5097974;28;20438;-59
2023/08/25 07:31:31;;;;;;;48.13;38.30;;;19.50;99.90;;;;;;5096762;28;20048;-58
2023/08/25 07:33:57;;;;;;;48.00;36.17;;;19.50;99.90;;;;;;5098511;28;20052;-58
2023/08/25 07:36:24;;;;;;;49.42;36.88;;;19.50;99.90;;;;;;5097254;28;20074;-58
2023/08/25 07:38:50;;;;;;;39.20;31.88;;;19.50;99.90;;;;;;5097284;28;20494;-59
2023/08/25 07:41:20;;;;;;;39.03;30.02;;;19.40;99.90;;;;;;5096569;28;20058;-58
2023/08/25 07:43:46;;;;;;;37.72;26.95;;;19.40;99.90;;;;;;5097292;28;20032;-58
2023/08/25 07:46:11;;;;;;;31.88;23.48;;;19.50;99.90;;;;;;5097340;28;20047;-58
2023/08/25 07:48:37;;;;;;;32.63;23.88;;;19.50;99.90;;;;;;5096191;28;20048;-58
2023/08/25 07:51:04;;;;;;;29.65;23.25;;;19.60;99.90;;;;;;5097031;28;20088;-58
2023/08/25 07:53:31;;;;;;;28.63;22.55;;;19.60;99.90;;;;;;5096325;28;20032;-58
2023/08/25 07:55:58;;;;;;;30.77;22.48;;;19.60;99.90;;;;;;5107136;28;20089;-58
2023/08/25 07:58:24;;;;;;;33.60;23.25;;;19.50;99.90;;;;;;5117041;28;20059;-58
2023/08/25 08:00:50;;;;;;;31.58;22.88;;;19.50;99.90;;;;;;5117222;28;20070;-59
2023/08/25 08:03:16;;;;;;;31.25;23.73;;;19.80;99.90;;;;;;5116940;28;20077;-59
2023/08/25 08:05:42;;;;;;;30.10;23.45;;;19.70;99.90;;;;;;5116327;28;20043;-59
2023/08/25 08:08:09;;;;;;;26.25;21.38;;;19.70;99.90;;;;;;5115451;28;20059;-59
2023/08/25 08:10:36;;;;;;;29.95;21.90;;;19.80;99.90;;;;;;5099745;28;20051;-60
2023/08/25 08:13:03;;;;;;;24.80;20.25;;;19.70;99.90;;;;;;5107749;28;20044;-60
2023/08/25 08:15:28;;;;;;;26.45;19.92;;;19.70;99.90;;;;;;5094597;28;20058;-58
2023/08/25 08:17:54;;;;;;;24.13;18.45;;;19.80;99.90;;;;;;5096385;28;20123;-58
2023/08/25 08:20:21;;;;;;;23.08;17.92;;;19.90;99.90;;;;;;5096567;28;20078;-58
2023/08/25 08:22:46;;;;;;;22.42;16.48;;;19.80;99.90;;;;;;5094622;28;20050;-59
2023/08/25 08:25:14;;;;;;;24.75;17.67;;;19.70;99.90;;;;;;5096990;28;20040;-58
2023/08/25 08:27:41;;;;;;;22.42;16.35;;;19.70;99.90;;;;;;5095230;28;20040;-59
2023/08/25 08:30:08;;;;;;;20.23;15.82;;;20.00;99.90;;;;;;5096973;28;20064;-58
2023/08/25 08:32:35;;;;;;;21.05;17.75;;;19.90;99.90;;;;;;5095694;28;20574;-57
2023/08/25 08:35:07;;;;;;;24.20;18.30;;;20.10;99.90;;;;;;5096668;28;20058;-58
2023/08/25 08:37:33;;;;;;;20.27;17.10;;;20.20;99.90;;;;;;5096575;28;20494;-58
2023/08/25 08:40:00;;;;;;;25.75;16.95;;;20.10;99.90;;;;;;5100442;28;20046;-58
2023/08/25 08:42:27;;;;;;;22.05;17.23;;;20.40;99.90;;;;;;5099059;28;20131;-58
2023/08/25 08:44:55;;;;;;;26.02;18.48;;;20.40;99.90;;;;;;5099134;28;20047;-58
2023/08/25 08:47:22;;;;;;;22.55;17.05;;;20.20;99.90;;;;;;5100004;28;20074;-58
2023/08/25 08:49:50;;;;;;;27.50;19.55;;;20.30;99.90;;;;;;5099594;28;20058;-59
2023/08/25 08:52:17;;;;;;;23.98;18.63;;;20.50;99.90;;;;;;5099585;28;20047;-58
2023/08/25 08:54:44;;;;;;;23.48;18.25;;;20.40;99.90;;;;;;5099723;28;20072;-58
2023/08/25 08:57:11;;;;;;;27.70;20.30;;;20.50;99.90;;;;;;5119246;28;20498;-58
2023/08/25 08:59:37;;;;;;;29.52;21.85;;;20.70;99.90;;;;;;5119740;28;20462;-59
2023/08/25 09:02:05;;;;;;;24.58;20.35;;;20.70;99.90;;;;;;5119031;28;20040;-58
2023/08/25 09:04:33;;;;;;;23.30;18.75;;;20.90;99.90;;;;;;5120633;28;20042;-58
2023/08/25 09:07:03;;;;;;;24.65;17.48;;;20.80;99.90;;;;;;5119316;28;20392;-58
2023/08/25 09:09:28;;;;;;;23.67;16.20;;;20.50;99.90;;;;;;5119943;27;20135;-58
2023/08/25 09:11:54;;;;;;;23.25;17.65;;;20.60;99.90;;;;;;5120171;28;20381;-58
2023/08/25 09:14:25;;;;;;;25.85;18.10;;;20.60;99.90;;;;;;5118904;28;20058;-58
2023/08/25 09:16:55;;;;;;;24.10;18.13;;;20.60;99.90;;;;;;5120015;28;20498;-59
2023/08/25 09:19:21;;;;;;;23.27;17.83;;;20.70;99.90;;;;;;5119034;28;20054;-58
2023/08/25 09:21:47;;;;;;;24.63;18.45;;;20.90;99.90;;;;;;5120088;28;20043;-58
2023/08/25 09:24:22;;;;;;;21.20;16.77;;;21.10;99.90;;;;;;5118562;28;20082;-58
2023/08/25 09:26:49;;;;;;;20.67;16.27;;;21.20;99.90;;;;;;5119305;28;20080;-58
2023/08/25 09:29:15;;;;;;;23.50;18.08;;;21.20;99.90;;;;;;5120147;28;20043;-58
2023/08/25 09:31:42;;;;;;;27.05;17.90;;;21.20;99.90;;;;;;5118838;28;20038;-58
2023/08/25 09:34:10;;;;;;;21.90;17.10;;;21.20;99.90;;;;;;5119895;28;20557;-58
2023/08/25 09:36:50;;;;;;;23.42;18.05;;;21.30;99.90;;;;;;5119162;28;20093;-58
2023/08/25 09:39:15;;;;;;;21.77;17.73;;;21.30;99.90;;;;;;5119300;28;20046;-58
2023/08/25 09:41:43;;;;;;;21.88;16.95;;;21.40;99.90;;;;;;5119671;28;20083;-58
2023/08/25 09:44:08;;;;;;;26.70;19.67;;;21.40;99.90;;;;;;5118711;28;20056;-58
2023/08/25 09:46:34;;;;;;;26.55;19.10;;;21.50;99.90;;;;;;5119359;28;20047;-58
2023/08/25 09:49:05;;;;;;;23.08;18.67;;;21.40;99.90;;;;;;5118335;28;20047;-58
2023/08/25 09:51:42;;;;;;;22.92;17.50;;;21.40;99.90;;;;;;5119780;28;20042;-58
2023/08/25 09:54:18;;;;;;;22.27;17.13;;;21.50;99.90;;;;;;5119202;28;20112;-58
2023/08/25 09:56:46;;;;;;;24.08;17.80;;;21.30;99.90;;;;;;5101904;28;20051;-58
2023/08/25 09:59:13;;;;;;;24.95;17.75;;;21.40;99.90;;;;;;5097744;28;20047;-58
2023/08/25 10:01:43;;;;;;;24.13;18.33;;;21.30;99.90;;;;;;5098057;28;20040;-58
2023/08/25 10:04:10;;;;;;;27.90;18.30;;;21.30;99.90;;;;;;5098410;28;20040;-58
2023/08/25 10:06:37;;;;;;;25.83;17.40;;;21.30;99.90;;;;;;5097756;28;20086;-58
2023/08/25 10:09:05;;;;;;;21.25;16.98;;;21.40;99.90;;;;;;5099191;28;20052;-58
2023/08/25 10:11:34;;;;;;;22.65;17.50;;;21.40;99.90;;;;;;5098922;28;20514;-58
2023/08/25 10:14:05;;;;;;;22.73;16.98;;;21.50;99.90;;;;;;5098134;28;20055;-58
2023/08/25 10:16:51;;;;;;;20.98;15.82;;;21.50;99.90;;;;;;5098975;28;20067;-58
2023/08/25 10:19:20;;;;;;;22.25;16.58;;;21.40;99.90;;;;;;5097469;28;20598;-58
2023/08/25 10:21:51;;;;;;;24.45;16.70;;;21.30;99.90;;;;;;5099240;28;20058;-58
2023/08/25 10:24:24;;;;;;;22.30;17.15;;;21.30;99.90;;;;;;5080246;28;20119;-58
2023/08/25 10:26:51;;;;;;;22.77;17.98;;;21.40;99.90;;;;;;5097986;28;20036;-58
2023/08/25 10:29:20;;;;;;;24.10;19.15;;;21.40;99.90;;;;;;5098864;28;20032;-58
2023/08/25 10:31:47;;;;;;;23.60;17.92;;;21.30;99.90;;;;;;5096186;28;20093;-58
2023/08/25 10:34:37;;;;;;;23.35;17.95;;;21.20;99.90;;;;;;5102199;28;20047;-58
2023/08/25 10:37:07;;;;;;;24.13;17.30;;;21.30;99.90;;;;;;5101645;28;20412;-58
2023/08/25 10:39:55;;;;;;;20.58;17.10;;;21.30;99.90;;;;;;5099254;28;20871;-58
2023/08/25 10:42:28;;;;;;;24.13;18.80;;;21.20;99.90;;;;;;5088045;28;20459;-58
2023/08/25 10:44:55;;;;;;;24.17;18.17;;;21.30;99.90;;;;;;5086013;28;20044;-58
2023/08/25 10:47:22;;;;;;;24.65;17.52;;;21.40;99.90;;;;;;5071875;28;20051;-58
2023/08/25 10:49:54;;;;;;;22.70;17.35;;;21.40;99.90;;;;;;5086360;28;20047;-59
2023/08/25 10:52:20;;;;;;;20.65;16.60;;;21.30;99.90;;;;;;5086929;28;20040;-59
2023/08/25 10:54:47;;;;;;;23.83;17.65;;;21.30;99.90;;;;;;5087600;28;20495;-58
2023/08/25 10:57:29;;;;;;;23.83;17.95;;;21.30;99.90;;;;;;5086203;28;20063;-58
2023/08/25 10:59:56;;;;;;;21.48;17.50;;;21.20;99.90;;;;;;5087110;28;20052;-58
2023/08/25 11:02:48;;;;;;;26.30;17.77;;;21.30;99.90;;;;;;5086457;28;20119;-59
2023/08/25 11:05:26;;;;;;;;;;;21.30;99.90;;;;;;5073072;28;20055;-59
2023/08/25 11:07:53;;;;;;;25.00;18.73;;;21.20;99.90;;;;;;5077480;28;19948;-59
2023/08/25 11:10:21;;;;;;;21.65;17.60;;;21.10;99.90;;;;;;5076206;28;20459;-58
2023/08/25 11:12:53;;;;;;;20.55;16.88;;;21.00;99.90;;;;;;5077680;28;20040;-59
2023/08/25 11:15:19;;;;;;;25.77;17.08;;;21.10;99.90;;;;;;5076047;28;20048;-58
2023/08/25 11:17:48;;;;;;;24.42;16.60;;;21.10;99.90;;;;;;5076368;28;20131;-58
2023/08/25 11:20:15;;;;;;;21.42;16.38;;;21.10;99.90;;;;;;5076895;28;20139;-58
2023/08/25 11:22:55;;;;;;;21.80;16.92;;;21.30;99.90;;;;;;5074798;28;20055;-58
2023/08/25 11:25:21;;;;;;;24.48;18.55;;;21.40;99.90;;;;;;5083943;28;20045;-57
2023/08/25 11:27:51;;;;;;;21.13;15.52;;;21.50;99.90;;;;;;5084313;28;20047;-57
2023/08/25 11:30:17;;;;;;;22.45;16.55;;;21.60;99.90;;;;;;5086792;28;20044;-59
2023/08/25 11:32:47;;;;;;;24.13;16.50;;;21.60;99.90;;;;;;5086556;28;20100;-57
2023/08/25 11:35:13;;;;;;;23.92;17.20;;;21.60;99.90;;;;;;5087629;28;20050;-58
2023/08/25 11:37:39;;;;;;;21.52;17.17;;;21.50;99.90;;;;;;5086845;28;20044;-58
2023/08/25 11:40:26;;;;;;;20.30;16.20;;;21.50;99.90;;;;;;5084845;28;20040;-58
2023/08/25 11:42:53;;;;;;;23.63;17.25;;;21.50;99.90;;;;;;5104025;28;20071;-57
2023/08/25 11:45:18;;;;;;;19.63;15.07;;;21.50;99.90;;;;;;5107185;28;20056;-57
2023/08/25 11:47:45;;;;;;;22.58;16.38;;;21.50;99.90;;;;;;5106199;28;20044;-57
2023/08/25 11:50:10;;;;;;;24.33;16.58;;;21.50;99.90;;;;;;5106484;28;20584;-58
2023/08/25 11:52:36;;;;;;;23.15;16.35;;;21.50;99.90;;;;;;5105237;28;20091;-59
2023/08/25 11:55:02;;;;;;;22.38;17.70;;;21.50;99.90;;;;;;5108915;28;20384;-58
2023/08/25 11:57:35;;;;;;;23.48;17.60;;;21.60;99.90;;;;;;5102244;28;20638;-58
2023/08/25 12:00:07;;;;;;;23.35;18.45;;;21.70;99.90;;;;;;5106496;28;20066;-58
2023/08/25 12:02:34;;;;;;;29.33;20.42;;;21.80;99.90;;;;;;5113606;28;20044;-57
2023/08/25 12:05:04;;;;;;;25.52;19.83;;;21.70;99.90;;;;;;5120248;28;20055;-58
2023/08/25 12:07:32;;;;;;;28.70;20.92;;;21.70;99.90;;;;;;5120937;28;20086;-58
2023/08/25 12:09:59;;;;;;;27.75;20.63;;;21.70;99.90;;;;;;5120338;28;20124;-58
2023/08/25 12:12:30;;;;;;;27.40;19.75;;;21.70;99.90;;;;;;5121649;28;20040;-58
2023/08/25 12:14:55;;;;;;;26.17;19.33;;;21.60;99.90;;;;;;5120456;28;20418;-57
2023/08/25 12:17:26;;;;;;;26.30;18.83;;;21.50;99.90;;;;;;5121165;28;20048;-58
2023/08/25 12:19:52;;;;;;;24.92;18.15;;;21.60;99.90;;;;;;5120642;28;20117;-58
2023/08/25 12:22:18;;;;;;;29.17;19.55;;;21.70;99.90;;;;;;5120589;28;20051;-58
2023/08/25 12:24:45;;;;;;;27.38;19.67;;;21.70;99.90;;;;;;5121205;28;20517;-57
2023/08/25 12:27:10;;;;;;;28.40;19.77;;;21.80;99.90;;;;;;5119991;28;20039;-58
2023/08/25 12:29:36;;;;;;;28.42;19.77;;;21.70;99.90;;;;;;5121188;28;20092;-58